sensor_id;sensor_type;location;lat;lon;timestamp;pressure;altitude;pressure_sealevel;temperature;humidity
13765;BME280;6953;48.810;9.204;2023-02-27T00:01:54;98994.75;;;-1.83;83.39
13765;BME280;6953;48.810;9.204;2023-02-27T00:04:20;99258.97;;;-0.28;83.49
13765;BME280;6953;48.810;9.204;2023-02-27T00:06:45;99245.25;;;-0.29;83.04
13765;BME280;6953;48.810;9.204;2023-02-27T00:09:10;99095.94;;;-1.15;83.13
13765;BME280;6953;48.810;9.204;2023-02-27T00:11:36;99235.78;;;-0.36;83.99
13765;BME280;6953;48.810;9.204;2023-02-27T00:14:03;99231.50;;;-0.38;83.83
13765;BME280;6953;48.810;9.204;2023-02-27T00:16:28;99232.38;;;-0.39;84.51
13765;BME280;6953;48.810;9.204;2023-02-27T00:18:53;99228.06;;;-0.37;84.18
13765;BME280;6953;48.810;9.204;2023-02-27T00:21:21;99236.66;;;-0.35;84.53
13765;BME280;6953;48.810;9.204;2023-02-27T00:23:47;98924.50;;;-2.27;84.14
13765;BME280;6953;48.810;9.204;2023-02-27T00:26:12;99181.75;;;-0.73;84.32
13765;BME280;6953;48.810;9.204;2023-02-27T00:28:38;99241.81;;;-0.38;84.42
13765;BME280;6953;48.810;9.204;2023-02-27T00:31:03;99227.22;;;-0.42;84.21
13765;BME280;6953;48.810;9.204;2023-02-27T00:33:29;99216.06;;;-0.55;84.23
13765;BME280;6953;48.810;9.204;2023-02-27T00:35:55;99253.84;;;-0.40;84.27
13765;BME280;6953;48.810;9.204;2023-02-27T00:38:21;99240.13;;;-0.44;84.56
13765;BME280;6953;48.810;9.204;2023-02-27T00:40:46;99238.38;;;-0.51;85.43
13765;BME280;6953;48.810;9.204;2023-02-27T00:43:12;99244.38;;;-0.58;85.20
13765;BME280;6953;48.810;9.204;2023-02-27T00:45:37;99244.38;;;-0.61;85.83
13765;BME280;6953;48.810;9.204;2023-02-27T00:48:02;99235.81;;;-0.66;85.80
13765;BME280;6953;48.810;9.204;2023-02-27T00:50:28;98916.75;;;-2.58;86.10
13765;BME280;6953;48.810;9.204;2023-02-27T00:52:53;99198.91;;;-0.93;86.52
13765;BME280;6953;48.810;9.204;2023-02-27T00:55:18;99240.97;;;-0.64;86.15
13765;BME280;6953;48.810;9.204;2023-02-27T00:57:44;99180.88;;;-1.08;86.61
13765;BME280;6953;48.810;9.204;2023-02-27T01:00:09;99274.44;;;-0.72;86.86
13765;BME280;6953;48.810;9.204;2023-02-27T01:02:35;99241.84;;;-0.85;86.20
13765;BME280;6953;48.810;9.204;2023-02-27T01:05:00;98954.47;;;-2.36;86.41
13765;BME280;6953;48.810;9.204;2023-02-27T01:07:26;99250.41;;;-0.68;86.88
13765;BME280;6953;48.810;9.204;2023-02-27T01:09:51;99202.31;;;-1.09;86.93
13765;BME280;6953;48.810;9.204;2023-02-27T01:12:16;99199.75;;;-0.91;86.69
13765;BME280;6953;48.810;9.204;2023-02-27T01:14:42;98941.59;;;-2.38;86.73
13765;BME280;6953;48.810;9.204;2023-02-27T01:17:08;99222.94;;;-0.73;86.61
13765;BME280;6953;48.810;9.204;2023-02-27T01:19:34;99243.56;;;-0.63;86.72
13765;BME280;6953;48.810;9.204;2023-02-27T01:21:59;99238.38;;;-0.64;86.91
13765;BME280;6953;48.810;9.204;2023-02-27T01:24:24;99145.69;;;-1.16;86.70
13765;BME280;6953;48.810;9.204;2023-02-27T01:26:50;99233.22;;;-0.70;87.26
13765;BME280;6953;48.810;9.204;2023-02-27T01:29:17;99260.69;;;-0.69;87.28
13765;BME280;6953;48.810;9.204;2023-02-27T01:31:42;99271.88;;;-0.72;87.63
13765;BME280;6953;48.810;9.204;2023-02-27T01:34:07;99194.63;;;-0.90;87.37
13765;BME280;6953;48.810;9.204;2023-02-27T01:36:33;99226.34;;;-0.71;87.32
13765;BME280;6953;48.810;9.204;2023-02-27T01:38:58;99218.66;;;-0.76;87.37
13765;BME280;6953;48.810;9.204;2023-02-27T01:41:23;99223.78;;;-0.76;87.75
13765;BME280;6953;48.810;9.204;2023-02-27T01:43:57;98833.66;;;-3.02;87.49
13765;BME280;6953;48.810;9.204;2023-02-27T01:46:24;98997.31;;;-2.10;87.75
13765;BME280;6953;48.810;9.204;2023-02-27T01:48:50;98586.34;;;-4.43;88.05
13765;BME280;6953;48.810;9.204;2023-02-27T01:51:19;98895.34;;;-2.63;88.18
13765;BME280;6953;48.810;9.204;2023-02-27T01:53:47;99112.22;;;-1.34;88.43
13765;BME280;6953;48.810;9.204;2023-02-27T01:56:17;99201.50;;;-0.83;88.68
13765;BME280;6953;48.810;9.204;2023-02-27T01:58:45;99124.22;;;-1.47;88.22
13765;BME280;6953;48.810;9.204;2023-02-27T02:01:12;99214.34;;;-0.77;88.35
13765;BME280;6953;48.810;9.204;2023-02-27T02:06:10;99248.69;;;-0.76;88.36
13765;BME280;6953;48.810;9.204;2023-02-27T02:08:41;99162.84;;;-1.01;88.52
13765;BME280;6953;48.810;9.204;2023-02-27T02:11:08;98888.50;;;-2.61;88.22
13765;BME280;6953;48.810;9.204;2023-02-27T02:13:34;99198.91;;;-0.78;88.55
13765;BME280;6953;48.810;9.204;2023-02-27T02:16:41;99211.78;;;-0.65;88.48
13765;BME280;6953;48.810;9.204;2023-02-27T02:19:51;99209.19;;;-0.66;88.54
13765;BME280;6953;48.810;9.204;2023-02-27T02:38:55;99223.78;;;-0.73;89.12
13765;BME280;6953;48.810;9.204;2023-02-27T02:44:21;99212.63;;;-0.82;89.39
13765;BME280;6953;48.810;9.204;2023-02-27T02:47:04;99160.25;;;-1.18;89.42
13765;BME280;6953;48.810;9.204;2023-02-27T02:52:43;99191.19;;;-0.99;89.96
13765;BME280;6953;48.810;9.204;2023-02-27T02:55:15;99252.97;;;-0.89;90.28
13765;BME280;6953;48.810;9.204;2023-02-27T02:57:54;99257.25;;;-0.94;90.21
13765;BME280;6953;48.810;9.204;2023-02-27T03:00:27;99150.81;;;-1.39;90.62
13765;BME280;6953;48.810;9.204;2023-02-27T03:03:02;99222.06;;;-1.17;90.70
13765;BME280;6953;48.810;9.204;2023-02-27T03:05:33;99174.88;;;-1.26;90.79
13765;BME280;6953;48.810;9.204;2023-02-27T03:08:04;99228.97;;;-0.92;90.89
13765;BME280;6953;48.810;9.204;2023-02-27T03:10:36;98971.53;;;-2.43;90.57
13765;BME280;6953;48.810;9.204;2023-02-27T03:13:08;99219.50;;;-1.02;90.79
13765;BME280;6953;48.810;9.204;2023-02-27T03:18:36;99231.53;;;-0.95;90.86
13765;BME280;6953;48.810;9.204;2023-02-27T03:21:15;99228.09;;;-0.97;91.29
13765;BME280;6953;48.810;9.204;2023-02-27T03:23:45;99118.22;;;-1.65;90.95
13765;BME280;6953;48.810;9.204;2023-02-27T03:26:15;99228.91;;;-1.00;91.77
13765;BME280;6953;48.810;9.204;2023-02-27T03:29:10;99222.94;;;-1.07;91.29
13765;BME280;6953;48.810;9.204;2023-02-27T03:31:40;99246.97;;;-0.98;92.11
13765;BME280;6953;48.810;9.204;2023-02-27T03:34:23;99245.25;;;-0.99;91.64
13765;BME280;6953;48.810;9.204;2023-02-27T03:37:00;99018.66;;;-2.32;91.79
13765;BME280;6953;48.810;9.204;2023-02-27T03:39:57;99245.22;;;-0.98;91.56
13765;BME280;6953;48.810;9.204;2023-02-27T03:42:41;99272.66;;;-1.10;92.30
13765;BME280;6953;48.810;9.204;2023-02-27T03:45:22;99254.66;;;-1.04;92.33
13765;BME280;6953;48.810;9.204;2023-02-27T03:47:51;99249.50;;;-1.07;92.17
13765;BME280;6953;48.810;9.204;2023-02-27T03:50:17;99242.66;;;-1.17;92.55
13765;BME280;6953;48.810;9.204;2023-02-27T03:52:42;99132.75;;;-1.81;92.07
13765;BME280;6953;48.810;9.204;2023-02-27T03:55:17;99259.81;;;-1.04;92.34
13765;BME280;6953;48.810;9.204;2023-02-27T03:57:46;98913.16;;;-3.12;92.59
13765;BME280;6953;48.810;9.204;2023-02-27T04:00:21;99258.13;;;-1.03;92.33
13765;BME280;6953;48.810;9.204;2023-02-27T04:02:47;99263.22;;;-1.08;92.86
13765;BME280;6953;48.810;9.204;2023-02-27T04:05:16;99172.19;;;-1.68;92.64
13765;BME280;6953;48.810;9.204;2023-02-27T04:07:55;99270.00;;;-1.38;92.86
13765;BME280;6953;48.810;9.204;2023-02-27T04:15:53;98950.00;;;-2.96;92.59
13765;BME280;6953;48.810;9.204;2023-02-27T04:26:47;99318.13;;;-1.22;93.47
13765;BME280;6953;48.810;9.204;2023-02-27T04:32:21;99275.22;;;-1.23;93.73
13765;BME280;6953;48.810;9.204;2023-02-27T04:34:54;99258.88;;;-1.34;93.65
13765;BME280;6953;48.810;9.204;2023-02-27T04:37:26;99273.50;;;-1.26;94.14
13765;BME280;6953;48.810;9.204;2023-02-27T04:40:01;99273.50;;;-1.24;94.06
13765;BME280;6953;48.810;9.204;2023-02-27T04:42:32;98877.91;;;-3.57;94.24
13765;BME280;6953;48.810;9.204;2023-02-27T04:45:02;99264.91;;;-1.32;94.45
13765;BME280;6953;48.810;9.204;2023-02-27T04:47:33;99258.91;;;-1.36;94.53
13765;BME280;6953;48.810;9.204;2023-02-27T04:50:08;99258.88;;;-1.37;94.76
13765;BME280;6953;48.810;9.204;2023-02-27T04:52:42;99285.50;;;-1.28;94.21
13765;BME280;6953;48.810;9.204;2023-02-27T04:55:24;99246.00;;;-1.42;94.55
13765;BME280;6953;48.810;9.204;2023-02-27T04:58:13;99276.94;;;-1.25;94.78
13765;BME280;6953;48.810;9.204;2023-02-27T05:00:42;99276.06;;;-1.26;94.18
13765;BME280;6953;48.810;9.204;2023-02-27T05:03:16;98968.75;;;-3.07;94.56
13765;BME280;6953;48.810;9.204;2023-02-27T05:05:43;99267.47;;;-1.29;94.51
13765;BME280;6953;48.810;9.204;2023-02-27T05:14:07;98954.16;;;-3.14;94.70
13765;BME280;6953;48.810;9.204;2023-02-27T05:16:41;99283.81;;;-1.24;94.09
13765;BME280;6953;48.810;9.204;2023-02-27T05:19:09;98967.91;;;-3.08;93.64
13765;BME280;6953;48.810;9.204;2023-02-27T05:21:48;99285.50;;;-1.25;94.26
13765;BME280;6953;48.810;9.204;2023-02-27T05:24:36;98989.28;;;-3.03;93.80
13765;BME280;6953;48.810;9.204;2023-02-27T05:27:38;99293.22;;;-1.26;93.98
13765;BME280;6953;48.810;9.204;2023-02-27T05:32:52;99081.06;;;-2.58;93.58
13765;BME280;6953;48.810;9.204;2023-02-27T05:35:44;99300.06;;;-1.36;94.55
13765;BME280;6953;48.810;9.204;2023-02-27T05:38:19;99306.91;;;-1.38;94.95
13765;BME280;6953;48.810;9.204;2023-02-27T05:40:50;99330.91;;;-1.39;95.16
13765;BME280;6953;48.810;9.204;2023-02-27T05:43:39;99312.06;;;-1.38;94.76
13765;BME280;6953;48.810;9.204;2023-02-27T05:46:12;99343.78;;;-1.39;95.05
13765;BME280;6953;48.810;9.204;2023-02-27T05:48:43;99236.41;;;-1.86;94.57
13765;BME280;6953;48.810;9.204;2023-02-27T05:51:12;99015.75;;;-3.12;94.17
13765;BME280;6953;48.810;9.204;2023-02-27T05:53:44;99087.81;;;-2.74;94.72
13765;BME280;6953;48.810;9.204;2023-02-27T05:56:12;99312.88;;;-1.42;95.03
13765;BME280;6953;48.810;9.204;2023-02-27T05:58:44;99289.66;;;-1.60;94.71
13765;BME280;6953;48.810;9.204;2023-02-27T06:01:11;99295.69;;;-1.53;94.85
13765;BME280;6953;48.810;9.204;2023-02-27T06:03:38;99028.59;;;-3.09;94.49
13765;BME280;6953;48.810;9.204;2023-02-27T06:06:13;99354.91;;;-1.41;95.00
13765;BME280;6953;48.810;9.204;2023-02-27T06:08:38;99319.72;;;-1.42;95.01
13765;BME280;6953;48.810;9.204;2023-02-27T06:11:04;99314.59;;;-1.42;95.23
13765;BME280;6953;48.810;9.204;2023-02-27T06:13:30;99080.09;;;-2.80;95.65
13765;BME280;6953;48.810;9.204;2023-02-27T06:15:55;99313.75;;;-1.44;94.97
13765;BME280;6953;48.810;9.204;2023-02-27T06:18:20;99311.22;;;-1.34;95.38
13765;BME280;6953;48.810;9.204;2023-02-27T06:20:47;99083.53;;;-2.75;94.02
13765;BME280;6953;48.810;9.204;2023-02-27T06:23:13;99319.78;;;-1.32;94.69
13765;BME280;6953;48.810;9.204;2023-02-27T06:25:38;99057.81;;;-2.90;94.13
13765;BME280;6953;48.810;9.204;2023-02-27T06:28:04;99352.41;;;-1.29;95.23
13765;BME280;6953;48.810;9.204;2023-02-27T06:30:30;99167.69;;;-2.24;94.77
13765;BME280;6953;48.810;9.204;2023-02-27T06:32:55;99282.00;;;-1.54;94.93
13765;BME280;6953;48.810;9.204;2023-02-27T06:35:21;99366.16;;;-1.23;94.78
13765;BME280;6953;48.810;9.204;2023-02-27T06:37:46;99335.28;;;-1.18;94.77
13765;BME280;6953;48.810;9.204;2023-02-27T06:40:12;99338.75;;;-1.15;94.66
13765;BME280;6953;48.810;9.204;2023-02-27T06:42:41;99351.59;;;-1.09;94.16
13765;BME280;6953;48.810;9.204;2023-02-27T06:45:09;99340.50;;;-1.03;93.72
13765;BME280;6953;48.810;9.204;2023-02-27T06:47:35;99331.91;;;-1.04;93.92
13765;BME280;6953;48.810;9.204;2023-02-27T06:50:00;99230.50;;;-1.58;93.59
13765;BME280;6953;48.810;9.204;2023-02-27T06:52:26;99237.38;;;-1.53;93.72
13765;BME280;6953;48.810;9.204;2023-02-27T06:54:51;99035.66;;;-2.64;92.64
13765;BME280;6953;48.810;9.204;2023-02-27T06:57:17;99069.16;;;-2.38;93.13
13765;BME280;6953;48.810;9.204;2023-02-27T06:59:42;98980.88;;;-2.79;92.16
13765;BME280;6953;48.810;9.204;2023-02-27T07:02:11;99313.94;;;-0.80;91.75
13765;BME280;6953;48.810;9.204;2023-02-27T07:04:37;99385.25;;;-0.58;92.21
13765;BME280;6953;48.810;9.204;2023-02-27T07:07:02;99348.31;;;-0.53;91.55
13765;BME280;6953;48.810;9.204;2023-02-27T07:09:27;99347.47;;;-0.49;91.65
13765;BME280;6953;48.810;9.204;2023-02-27T07:12:14;99352.63;;;-0.37;91.04
13765;BME280;6953;48.810;9.204;2023-02-27T07:14:40;99349.19;;;-0.28;90.90
13765;BME280;6953;48.810;9.204;2023-02-27T07:17:06;99351.78;;;-0.19;90.41
13765;BME280;6953;48.810;9.204;2023-02-27T07:19:32;99314.81;;;-0.35;89.64
13765;BME280;6953;48.810;9.204;2023-02-27T07:22:00;99318.25;;;-0.28;89.02
13765;BME280;6953;48.810;9.204;2023-02-27T07:24:26;99277.91;;;-0.43;88.52
13765;BME280;6953;48.810;9.204;2023-02-27T07:26:51;99198.91;;;-0.74;88.23
13765;BME280;6953;48.810;9.204;2023-02-27T07:29:17;99357.75;;;0.23;87.79
13765;BME280;6953;48.810;9.204;2023-02-27T07:31:43;99392.13;;;0.35;87.36
13765;BME280;6953;48.810;9.204;2023-02-27T07:34:08;99397.28;;;0.44;86.38
13765;BME280;6953;48.810;9.204;2023-02-27T07:36:37;99058.19;;;-1.24;85.25
13765;BME280;6953;48.810;9.204;2023-02-27T07:39:04;99367.09;;;0.63;85.47
13765;BME280;6953;48.810;9.204;2023-02-27T07:41:30;99345.63;;;0.62;84.97
13765;BME280;6953;48.810;9.204;2023-02-27T07:43:55;99358.47;;;0.79;84.41
13765;BME280;6953;48.810;9.204;2023-02-27T07:46:21;99041.00;;;-1.00;83.71
13765;BME280;6953;48.810;9.204;2023-02-27T07:48:48;99361.84;;;0.99;83.23
13765;BME280;6953;48.810;9.204;2023-02-27T07:51:13;99400.53;;;1.12;82.57
13765;BME280;6953;48.810;9.204;2023-02-27T07:53:39;99363.44;;;1.19;82.30
13765;BME280;6953;48.810;9.204;2023-02-27T07:56:04;99210.69;;;0.32;81.01
13765;BME280;6953;48.810;9.204;2023-02-27T07:58:30;99394.38;;;1.35;81.25
13765;BME280;6953;48.810;9.204;2023-02-27T08:00:55;99353.00;;;1.37;80.84
13765;BME280;6953;48.810;9.204;2023-02-27T08:03:21;99294.63;;;1.06;80.01
13765;BME280;6953;48.810;9.204;2023-02-27T08:05:47;99369.22;;;1.63;79.60
13765;BME280;6953;48.810;9.204;2023-02-27T08:08:12;99368.31;;;1.68;78.64
13765;BME280;6953;48.810;9.204;2023-02-27T08:10:37;99350.88;;;1.93;76.74
13765;BME280;6953;48.810;9.204;2023-02-27T08:13:03;99330.72;;;4.14;69.06
13765;BME280;6953;48.810;9.204;2023-02-27T08:15:28;99350.50;;;7.46;56.45
13765;BME280;6953;48.810;9.204;2023-02-27T08:17:53;99355.78;;;10.13;47.06
13765;BME280;6953;48.810;9.204;2023-02-27T08:20:19;99358.75;;;12.00;41.64
13765;BME280;6953;48.810;9.204;2023-02-27T08:22:47;99376.91;;;13.42;36.45
13765;BME280;6953;48.810;9.204;2023-02-27T08:25:13;99390.00;;;14.22;32.88
13765;BME280;6953;48.810;9.204;2023-02-27T08:27:39;99363.53;;;14.97;31.38
13765;BME280;6953;48.810;9.204;2023-02-27T08:30:06;99371.84;;;15.49;29.65
13765;BME280;6953;48.810;9.204;2023-02-27T08:32:32;99306.78;;;15.86;28.53
13765;BME280;6953;48.810;9.204;2023-02-27T08:34:58;99386.50;;;16.87;26.98
13765;BME280;6953;48.810;9.204;2023-02-27T08:37:23;99390.91;;;17.13;25.93
13765;BME280;6953;48.810;9.204;2023-02-27T08:39:48;99391.69;;;17.28;25.56
13765;BME280;6953;48.810;9.204;2023-02-27T08:42:14;99381.16;;;17.88;24.68
13765;BME280;6953;48.810;9.204;2023-02-27T08:44:40;99186.84;;;17.60;23.92
13765;BME280;6953;48.810;9.204;2023-02-27T08:47:05;99413.94;;;19.18;22.84
13765;BME280;6953;48.810;9.204;2023-02-27T08:49:30;99398.47;;;19.23;22.26
13765;BME280;6953;48.810;9.204;2023-02-27T08:51:56;99400.94;;;19.48;22.17
13765;BME280;6953;48.810;9.204;2023-02-27T08:54:21;99412.00;;;20.20;21.66
13765;BME280;6953;48.810;9.204;2023-02-27T08:56:47;99412.00;;;19.88;21.10
13765;BME280;6953;48.810;9.204;2023-02-27T08:59:12;99416.97;;;20.25;20.81
13765;BME280;6953;48.810;9.204;2023-02-27T09:01:38;99374.19;;;20.26;20.46
13765;BME280;6953;48.810;9.204;2023-02-27T09:04:04;99387.00;;;20.43;20.20
13765;BME280;6953;48.810;9.204;2023-02-27T09:06:32;99375.78;;;21.02;19.57
13765;BME280;6953;48.810;9.204;2023-02-27T09:08:59;99422.63;;;21.68;19.62
13765;BME280;6953;48.810;9.204;2023-02-27T09:11:26;99236.50;;;20.88;19.14
13765;BME280;6953;48.810;9.204;2023-02-27T09:13:52;99429.41;;;22.02;18.21
13765;BME280;6953;48.810;9.204;2023-02-27T09:16:19;99424.81;;;22.43;18.96
13765;BME280;6953;48.810;9.204;2023-02-27T09:18:45;99428.53;;;22.21;18.29
13765;BME280;6953;48.810;9.204;2023-02-27T09:21:11;99364.25;;;21.63;18.23
13765;BME280;6953;48.810;9.204;2023-02-27T09:23:37;99440.81;;;22.03;18.42
13765;BME280;6953;48.810;9.204;2023-02-27T09:26:02;99431.31;;;22.50;17.62
13765;BME280;6953;48.810;9.204;2023-02-27T09:28:29;99223.59;;;21.23;17.79
13765;BME280;6953;48.810;9.204;2023-02-27T09:30:54;99437.03;;;22.36;17.90
13765;BME280;6953;48.810;9.204;2023-02-27T09:33:20;99379.34;;;21.74;18.00
13765;BME280;6953;48.810;9.204;2023-02-27T09:35:45;99399.00;;;22.02;17.71
13765;BME280;6953;48.810;9.204;2023-02-27T09:38:10;99427.56;;;22.81;17.30
13765;BME280;6953;48.810;9.204;2023-02-27T09:40:40;99431.50;;;22.86;16.85
13765;BME280;6953;48.810;9.204;2023-02-27T09:43:16;99427.81;;;22.68;17.16
13765;BME280;6953;48.810;9.204;2023-02-27T09:45:43;99444.38;;;21.11;18.32
13765;BME280;6953;48.810;9.204;2023-02-27T09:48:56;99437.00;;;21.15;17.97
13765;BME280;6953;48.810;9.204;2023-02-27T09:51:02;99425.94;;;20.88;18.00
13765;BME280;6953;48.810;9.204;2023-02-27T09:53:49;99463.00;;;20.38;18.15
13765;BME280;6953;48.810;9.204;2023-02-27T09:56:53;99432.94;;;18.31;20.79
13765;BME280;6953;48.810;9.204;2023-02-27T09:59:15;99427.44;;;17.22;21.51
13765;BME280;6953;48.810;9.204;2023-02-27T10:01:54;99414.97;;;15.49;23.61
13765;BME280;6953;48.810;9.204;2023-02-27T10:15:40;99408.13;;;17.33;21.45
13765;BME280;6953;48.810;9.204;2023-02-27T10:18:16;99416.81;;;16.83;21.96
13765;BME280;6953;48.810;9.204;2023-02-27T10:20:51;99425.72;;;16.16;22.56
13765;BME280;6953;48.810;9.204;2023-02-27T10:23:30;99413.75;;;15.55;23.01
13765;BME280;6953;48.810;9.204;2023-02-27T10:25:59;99414.97;;;13.68;24.69
13765;BME280;6953;48.810;9.204;2023-02-27T10:28:25;99167.59;;;11.67;26.94
13765;BME280;6953;48.810;9.204;2023-02-27T10:30:54;99432.28;;;15.25;24.41
13765;BME280;6953;48.810;9.204;2023-02-27T10:33:25;99184.72;;;13.97;23.61
13765;BME280;6953;48.810;9.204;2023-02-27T10:35:51;99426.84;;;13.45;26.54
13765;BME280;6953;48.810;9.204;2023-02-27T10:38:33;99346.22;;;11.50;28.82
13765;BME280;6953;48.810;9.204;2023-02-27T10:41:00;99400.59;;;13.09;27.03
13765;BME280;6953;48.810;9.204;2023-02-27T10:43:26;99328.75;;;13.23;25.75
13765;BME280;6953;48.810;9.204;2023-02-27T10:45:52;99428.31;;;12.82;26.98
13765;BME280;6953;48.810;9.204;2023-02-27T10:48:17;99379.72;;;11.65;28.42
13765;BME280;6953;48.810;9.204;2023-02-27T10:50:46;99409.06;;;12.46;27.69
13765;BME280;6953;48.810;9.204;2023-02-27T10:55:47;99383.47;;;11.96;27.95
13765;BME280;6953;48.810;9.204;2023-02-27T10:58:21;99168.41;;;12.35;26.32
13765;BME280;6953;48.810;9.204;2023-02-27T11:00:53;99414.78;;;15.38;22.95
13765;BME280;6953;48.810;9.204;2023-02-27T11:03:25;99406.75;;;16.09;22.06
13765;BME280;6953;48.810;9.204;2023-02-27T11:05:59;99293.53;;;16.39;20.74
13765;BME280;6953;48.810;9.204;2023-02-27T11:08:28;99457.66;;;15.29;22.33
13765;BME280;6953;48.810;9.204;2023-02-27T11:13:20;99351.94;;;14.10;22.91
13765;BME280;6953;48.810;9.204;2023-02-27T11:16:01;99449.66;;;17.07;20.66
13765;BME280;6953;48.810;9.204;2023-02-27T11:18:28;99425.09;;;16.53;20.20
13765;BME280;6953;48.810;9.204;2023-02-27T11:21:09;99425.66;;;18.46;18.47
13765;BME280;6953;48.810;9.204;2023-02-27T11:23:35;99432.72;;;19.28;17.90
13765;BME280;6953;48.810;9.204;2023-02-27T11:26:15;99439.94;;;21.73;15.67
13765;BME280;6953;48.810;9.204;2023-02-27T11:28:41;99436.34;;;23.30;14.72
13765;BME280;6953;48.810;9.204;2023-02-27T11:31:15;99446.22;;;24.40;13.86
13765;BME280;6953;48.810;9.204;2023-02-27T11:33:50;99443.81;;;23.36;14.17
13765;BME280;6953;48.810;9.204;2023-02-27T11:36:17;99452.22;;;20.93;15.37
13765;BME280;6953;48.810;9.204;2023-02-27T11:38:50;99317.38;;;18.37;17.12
13765;BME280;6953;48.810;9.204;2023-02-27T11:41:17;99451.13;;;20.31;16.43
13765;BME280;6953;48.810;9.204;2023-02-27T11:43:48;99438.50;;;21.90;14.83
13765;BME280;6953;48.810;9.204;2023-02-27T11:46:23;99439.31;;;23.27;14.21
13765;BME280;6953;48.810;9.204;2023-02-27T11:48:51;99364.81;;;24.58;13.29
13765;BME280;6953;48.810;9.204;2023-02-27T11:54:24;99470.44;;;26.39;11.75
13765;BME280;6953;48.810;9.204;2023-02-27T11:57:00;99458.19;;;27.67;11.33
13765;BME280;6953;48.810;9.204;2023-02-27T11:59:42;99280.56;;;27.33;10.78
13765;BME280;6953;48.810;9.204;2023-02-27T12:02:28;99453.88;;;28.21;10.61
13765;BME280;6953;48.810;9.204;2023-02-27T12:05:01;99453.59;;;29.00;10.45
13765;BME280;6953;48.810;9.204;2023-02-27T12:07:37;99289.31;;;28.35;10.17
13765;BME280;6953;48.810;9.204;2023-02-27T12:12:52;99456.97;;;29.02;10.18
13765;BME280;6953;48.810;9.204;2023-02-27T12:15:27;99454.31;;;28.48;10.84
13765;BME280;6953;48.810;9.204;2023-02-27T12:18:10;99445.16;;;27.23;11.07
13765;BME280;6953;48.810;9.204;2023-02-27T12:20:58;99459.53;;;27.71;10.77
13765;BME280;6953;48.810;9.204;2023-02-27T12:23:28;99439.91;;;28.09;10.77
13765;BME280;6953;48.810;9.204;2023-02-27T12:26:04;99379.13;;;28.29;11.05
13765;BME280;6953;48.810;9.204;2023-02-27T12:28:55;99426.97;;;29.42;10.90
13765;BME280;6953;48.810;9.204;2023-02-27T12:36:30;99225.78;;;27.32;11.47
13765;BME280;6953;48.810;9.204;2023-02-27T12:38:56;99252.94;;;26.91;11.77
13765;BME280;6953;48.810;9.204;2023-02-27T12:41:34;99363.47;;;27.15;12.50
13765;BME280;6953;48.810;9.204;2023-02-27T12:49:59;99214.38;;;24.85;13.22
13765;BME280;6953;48.810;9.204;2023-02-27T12:55:32;99373.53;;;24.60;13.57
13765;BME280;6953;48.810;9.204;2023-02-27T13:00:59;99406.16;;;23.37;13.79
13765;BME280;6953;48.810;9.204;2023-02-27T13:03:32;99403.56;;;22.41;15.32
13765;BME280;6953;48.810;9.204;2023-02-27T13:06:06;99418.38;;;23.68;14.73
13765;BME280;6953;48.810;9.204;2023-02-27T13:14:02;99285.03;;;24.68;13.24
13765;BME280;6953;48.810;9.204;2023-02-27T13:16:36;99335.72;;;22.90;14.76
13765;BME280;6953;48.810;9.204;2023-02-27T13:19:13;99395.09;;;20.53;16.98
13765;BME280;6953;48.810;9.204;2023-02-27T13:22:47;99388.47;;;17.85;19.22
13765;BME280;6953;48.810;9.204;2023-02-27T13:24:50;99213.31;;;14.48;21.57
13765;BME280;6953;48.810;9.204;2023-02-27T13:28:06;99360.78;;;14.09;23.18
13765;BME280;6953;48.810;9.204;2023-02-27T13:30:27;99275.44;;;13.18;25.14
13765;BME280;6953;48.810;9.204;2023-02-27T13:33:14;99391.75;;;13.59;24.96
13765;BME280;6953;48.810;9.204;2023-02-27T13:43:46;99279.84;;;11.65;27.17
13765;BME280;6953;48.810;9.204;2023-02-27T13:54:07;99325.72;;;10.22;30.61
13765;BME280;6953;48.810;9.204;2023-02-27T13:56:47;99312.84;;;9.73;31.16
13765;BME280;6953;48.810;9.204;2023-02-27T13:59:29;99326.88;;;9.49;31.50
13765;BME280;6953;48.810;9.204;2023-02-27T14:02:26;99315.06;;;9.16;32.92
13765;BME280;6953;48.810;9.204;2023-02-27T14:04:55;99306.34;;;8.70;33.02
13765;BME280;6953;48.810;9.204;2023-02-27T14:07:31;99327.09;;;8.74;33.72
13765;BME280;6953;48.810;9.204;2023-02-27T14:10:05;99306.66;;;8.61;33.43
13765;BME280;6953;48.810;9.204;2023-02-27T14:12:35;99325.03;;;8.59;34.30
13765;BME280;6953;48.810;9.204;2023-02-27T14:17:43;99333.00;;;9.04;34.26
13765;BME280;6953;48.810;9.204;2023-02-27T14:25:46;99043.03;;;8.26;31.50
13765;BME280;6953;48.810;9.204;2023-02-27T14:28:36;99345.09;;;9.96;30.62
13765;BME280;6953;48.810;9.204;2023-02-27T14:31:33;99095.19;;;8.29;31.02
13765;BME280;6953;48.810;9.204;2023-02-27T14:33:58;99333.47;;;9.37;30.67
13765;BME280;6953;48.810;9.204;2023-02-27T14:36:31;99354.25;;;9.18;31.56
13765;BME280;6953;48.810;9.204;2023-02-27T14:38:59;99347.97;;;8.76;31.52
13765;BME280;6953;48.810;9.204;2023-02-27T14:41:42;99320.91;;;8.26;32.63
13765;BME280;6953;48.810;9.204;2023-02-27T14:44:23;99285.66;;;7.60;33.06
13765;BME280;6953;48.810;9.204;2023-02-27T14:46:50;99261.94;;;7.40;34.04
13765;BME280;6953;48.810;9.204;2023-02-27T14:49:20;99349.19;;;7.88;34.79
13765;BME280;6953;48.810;9.204;2023-02-27T14:51:46;99336.50;;;8.04;34.12
13765;BME280;6953;48.810;9.204;2023-02-27T14:54:13;99346.69;;;8.11;33.51
13765;BME280;6953;48.810;9.204;2023-02-27T14:56:39;99321.66;;;8.04;33.20
13765;BME280;6953;48.810;9.204;2023-02-27T15:01:45;99052.66;;;6.50;33.14
13765;BME280;6953;48.810;9.204;2023-02-27T15:04:15;99313.56;;;7.86;33.97
13765;BME280;6953;48.810;9.204;2023-02-27T15:06:44;99182.28;;;7.02;34.26
13765;BME280;6953;48.810;9.204;2023-02-27T15:09:29;99366.97;;;8.03;33.98
13765;BME280;6953;48.810;9.204;2023-02-27T15:11:57;99358.66;;;7.92;34.63
13765;BME280;6953;48.810;9.204;2023-02-27T15:14:29;99333.31;;;7.39;34.34
13765;BME280;6953;48.810;9.204;2023-02-27T15:16:55;99161.69;;;6.36;34.96
13765;BME280;6953;48.810;9.204;2023-02-27T15:19:26;99342.06;;;7.10;35.39
13765;BME280;6953;48.810;9.204;2023-02-27T15:21:57;99375.47;;;6.96;37.20
13765;BME280;6953;48.810;9.204;2023-02-27T15:24:28;99349.78;;;6.82;36.89
13765;BME280;6953;48.810;9.204;2023-02-27T15:27:11;99376.38;;;6.95;37.05
13765;BME280;6953;48.810;9.204;2023-02-27T15:29:55;99170.25;;;5.76;37.13
13765;BME280;6953;48.810;9.204;2023-02-27T15:32:31;99098.06;;;5.19;36.99
13765;BME280;6953;48.810;9.204;2023-02-27T15:35:00;99384.81;;;6.72;36.98
13765;BME280;6953;48.810;9.204;2023-02-27T15:37:29;99137.22;;;5.11;36.86